Time;durP1;ratioP1;P1;durP2;ratioP2;P2;SDS_P1;SDS_P2;PMS_P1;PMS_P2;Temp;Humidity;BMP_temperature;BMP_pressure;BME280_temperature;BME280_humidity;BME280_pressure;Samples;Min_cycle;Max_cycle;Signal;HPM_P1;HPM_P2
2021/05/10 17:17:32;;;;;;;0.40;0.25;;;14.50;99.90;;;;;;5109935;27;20300;-78
2021/05/10 17:19:58;;;;;;;0.60;0.20;;;14.60;99.90;;;;;;5082840;28;20022;-76
2021/05/10 17:22:23;;;;;;;0.25;0.20;;;14.60;99.90;;;;;;5110912;28;20020;-77
2021/05/10 17:24:49;;;;;;;0.35;0.20;;;14.80;99.90;;;;;;5110085;28;20486;-77
2021/05/10 17:27:14;;;;;;;2.05;0.22;;;14.60;99.90;;;;;;5113184;28;20043;-77
2021/05/10 17:29:40;;;;;;;0.57;0.30;;;14.90;99.90;;;;;;5116701;28;20057;-78
2021/05/10 17:32:06;;;;;;;0.73;0.30;;;14.70;99.90;;;;;;5125623;28;20032;-80
2021/05/10 17:34:32;;;;;;;1.48;0.20;;;14.80;99.90;;;;;;5122815;28;20030;-75
2021/05/10 17:36:58;;;;;;;0.90;0.30;;;15.10;99.90;;;;;;5130715;28;20395;-76
2021/05/10 17:39:24;;;;;;;0.20;0.20;;;14.80;99.90;;;;;;5129859;27;20095;-76
2021/05/10 17:41:50;;;;;;;1.50;0.25;;;14.80;99.90;;;;;;5125479;28;20019;-79
2021/05/10 17:44:16;;;;;;;0.70;0.35;;;14.90;99.90;;;;;;5090800;28;20377;-79
2021/05/10 17:46:41;;;;;;;0.22;0.20;;;15.70;99.90;;;;;;5089196;28;20126;-79
2021/05/10 17:49:07;;;;;;;0.75;0.38;;;14.90;99.90;;;;;;5089644;28;20032;-79
2021/05/10 17:51:33;;;;;;;1.38;0.20;;;14.80;99.90;;;;;;5089408;28;20028;-77
2021/05/10 17:54:00;;;;;;;0.80;0.40;;;15.20;99.90;;;;;;5088543;28;20480;-79
2021/05/10 17:56:26;;;;;;;2.70;0.50;;;14.80;99.90;;;;;;5089996;28;20021;-78
2021/05/10 17:58:52;;;;;;;0.30;0.30;;;15.00;99.90;;;;;;5090804;28;20075;-80
2021/05/10 18:03:56;;;;;;;0.70;0.47;;;14.70;99.90;;;;;;5100682;28;20592;-80
2021/05/10 18:06:23;;;;;;;0.43;0.30;;;14.70;99.90;;;;;;5114711;28;20164;-79
2021/05/10 18:08:49;;;;;;;0.30;0.20;;;14.80;99.90;;;;;;5131333;28;20124;-80
2021/05/10 18:11:15;;;;;;;0.40;0.30;;;14.70;99.90;;;;;;5106603;27;20028;-79
2021/05/10 18:13:41;;;;;;;0.98;0.30;;;15.50;99.90;;;;;;5091852;28;20124;-76
2021/05/10 18:16:07;;;;;;;2.58;0.32;;;14.60;99.90;;;;;;5091108;28;20404;-77
2021/05/10 18:18:39;;;;;;;0.80;0.30;;;15.40;99.90;;;;;;5092080;28;20032;-77
2021/05/10 18:21:05;;;;;;;0.30;0.30;;;14.90;99.90;;;;;;5088081;28;20466;-77
2021/05/10 18:23:31;;;;;;;0.30;0.20;;;16.10;99.90;;;;;;5093507;28;20060;-81
2021/05/10 18:25:57;;;;;;;1.00;0.40;;;15.20;99.90;;;;;;5094008;28;20040;-84
2021/05/10 18:28:23;;;;;;;1.20;0.38;;;14.40;99.90;;;;;;5090499;28;20025;-80
2021/05/10 18:30:50;;;;;;;1.85;0.45;;;15.60;99.90;;;;;;5089772;28;20378;-77
2021/05/10 18:33:15;;;;;;;1.17;0.47;;;14.40;99.90;;;;;;5111956;28;20024;-77
2021/05/10 18:35:41;;;;;;;0.80;0.60;;;14.30;99.90;;;;;;5098434;28;20035;-82
2021/05/10 18:38:14;;;;;;;1.15;0.50;;;14.60;99.90;;;;;;5099479;28;20035;-79
2021/05/10 18:40:39;;;;;;;;;;;14.20;99.90;;;;;;5094887;28;20032;-78
2021/05/10 18:43:05;;;;;;;1.92;0.80;;;15.20;99.90;;;;;;5094220;28;20277;-79
2021/05/10 18:45:34;;;;;;;1.27;0.55;;;14.40;99.90;;;;;;5093631;28;20024;-78
2021/05/10 18:48:05;;;;;;;1.10;0.60;;;14.50;99.90;;;;;;5095177;28;20031;-78
2021/05/10 18:50:46;;;;;;;1.55;0.93;;;14.30;99.90;;;;;;5093624;28;20093;-77
2021/05/10 18:53:12;;;;;;;1.00;0.60;;;14.60;99.90;;;;;;5076610;28;20494;-77
2021/05/10 18:55:44;;;;;;;1.20;0.60;;;14.80;99.90;;;;;;5072647;28;20024;-77
2021/05/10 18:58:13;;;;;;;1.30;0.70;;;14.20;99.90;;;;;;5072960;28;20029;-77
2021/05/10 19:00:39;;;;;;;1.15;0.63;;;14.30;99.90;;;;;;5072220;28;20054;-77
2021/05/10 19:03:05;;;;;;;1.90;1.02;;;14.20;99.90;;;;;;5074819;28;20043;-79
2021/05/10 19:05:32;;;;;;;1.42;1.00;;;14.10;99.90;;;;;;5113837;28;20110;-83
2021/05/10 19:07:58;;;;;;;1.65;0.80;;;14.10;99.90;;;;;;5101792;28;20039;-78
2021/05/10 19:10:23;;;;;;;2.85;0.73;;;14.10;99.90;;;;;;5099510;28;20036;-77
2021/05/10 19:12:49;;;;;;;1.35;0.80;;;14.10;99.90;;;;;;5101938;28;20047;-78
2021/05/10 19:15:16;;;;;;;0.77;0.35;;;15.30;99.90;;;;;;5100664;28;20077;-78
2021/05/10 19:17:43;;;;;;;1.15;0.65;;;14.00;99.90;;;;;;5093701;28;20114;-77
2021/05/10 19:20:09;;;;;;;0.65;0.50;;;14.00;99.90;;;;;;5090150;28;20028;-78
2021/05/10 19:22:37;;;;;;;1.02;0.60;;;14.00;99.90;;;;;;5094580;28;20035;-77
2021/05/10 19:25:07;;;;;;;1.38;0.73;;;13.90;99.90;;;;;;5093234;28;20031;-78
2021/05/10 19:27:32;;;;;;;1.42;0.70;;;13.90;99.90;;;;;;5090136;28;20020;-77
2021/05/10 19:29:58;;;;;;;4.65;0.95;;;14.00;99.90;;;;;;5069668;28;20033;-77
2021/05/10 19:32:24;;;;;;;2.20;0.60;;;13.80;99.90;;;;;;5073905;28;20120;-79
2021/05/10 19:34:50;;;;;;;1.00;0.73;;;13.80;99.90;;;;;;5095400;28;20032;-80
2021/05/10 19:37:17;;;;;;;0.93;0.70;;;13.80;99.90;;;;;;5094974;28;20036;-79
2021/05/10 19:39:44;;;;;;;1.58;0.65;;;13.70;99.90;;;;;;5094098;28;20024;-80
2021/05/10 19:42:10;;;;;;;1.27;0.80;;;14.40;99.90;;;;;;5094424;28;20123;-79
2021/05/10 19:44:38;;;;;;;0.93;0.60;;;13.90;99.90;;;;;;5091890;28;20041;-77
2021/05/10 19:47:21;;;;;;;1.02;0.82;;;13.70;99.90;;;;;;5094611;28;20076;-78
2021/05/10 19:49:57;;;;;;;1.10;0.60;;;13.60;99.90;;;;;;5098341;28;20027;-78
2021/05/10 20:00:29;;;;;;;4.78;0.90;;;13.50;99.90;;;;;;5084224;28;20761;-75
2021/05/10 20:03:06;;;;;;;1.17;0.80;;;13.40;99.90;;;;;;5068948;28;20044;-74
2021/05/10 20:05:31;;;;;;;0.80;0.70;;;13.80;99.90;;;;;;5107133;28;20035;-74
2021/05/10 20:07:57;;;;;;;2.45;1.20;;;13.30;99.90;;;;;;5101240;28;20031;-75
2021/05/10 20:10:23;;;;;;;1.25;0.98;;;14.90;99.90;;;;;;5087974;28;20055;-76
2021/05/10 20:12:49;;;;;;;4.18;1.58;;;13.20;99.90;;;;;;5085555;28;20039;-77
2021/05/10 20:15:15;;;;;;;1.40;1.30;;;13.20;99.90;;;;;;5079970;28;20117;-76
2021/05/10 20:17:41;;;;;;;2.42;1.50;;;13.90;99.90;;;;;;5081380;28;20035;-76
2021/05/10 20:20:07;;;;;;;4.13;1.70;;;13.10;99.90;;;;;;5075632;28;20016;-76
2021/05/10 20:22:33;;;;;;;1.23;1.05;;;13.00;99.90;;;;;;5069326;28;20017;-76
2021/05/10 20:24:59;;;;;;;2.28;1.30;;;12.70;99.90;;;;;;5068717;28;20166;-76
2021/05/10 20:27:25;;;;;;;2.63;1.50;;;13.10;99.90;;;;;;5068632;28;20032;-76
2021/05/10 20:29:51;;;;;;;3.97;1.40;;;13.00;99.90;;;;;;5070031;28;20039;-76
2021/05/10 20:32:16;;;;;;;2.33;1.27;;;13.70;99.90;;;;;;5078852;28;20542;-76
2021/05/10 20:34:42;;;;;;;4.75;1.65;;;13.00;99.90;;;;;;5102467;28;20028;-76
2021/05/10 20:37:08;;;;;;;2.85;1.30;;;13.00;99.90;;;;;;5110094;28;20052;-76
2021/05/10 20:39:33;;;;;;;2.78;1.33;;;13.30;99.90;;;;;;5109234;28;20460;-77
2021/05/10 20:41:59;;;;;;;2.63;1.45;;;13.00;99.90;;;;;;5111455;28;20026;-76
2021/05/10 20:44:26;;;;;;;1.92;1.40;;;13.10;99.90;;;;;;5109515;28;20051;-76
2021/05/10 20:46:52;;;;;;;2.38;1.50;;;13.10;99.90;;;;;;5108767;28;20111;-76
2021/05/10 20:49:18;;;;;;;3.45;1.48;;;13.50;99.90;;;;;;5109116;28;20024;-77
2021/05/10 20:51:44;;;;;;;3.40;1.50;;;14.00;99.90;;;;;;5108190;28;20504;-76
2021/05/10 20:54:10;;;;;;;2.45;1.55;;;13.10;99.90;;;;;;5109022;28;20034;-76
2021/05/10 20:56:36;;;;;;;2.33;1.60;;;12.90;99.90;;;;;;5108973;28;20133;-77
2021/05/10 20:59:02;;;;;;;2.22;1.50;;;13.60;99.90;;;;;;5108529;28;20023;-76
2021/05/10 21:01:28;;;;;;;3.80;1.70;;;12.90;99.90;;;;;;5090590;28;20077;-76
2021/05/10 21:03:53;;;;;;;1.95;1.52;;;13.80;99.90;;;;;;5091541;28;20111;-77
2021/05/10 21:06:19;;;;;;;3.90;2.38;;;13.10;99.90;;;;;;5108285;28;20112;-76
2021/05/10 21:08:45;;;;;;;3.00;2.33;;;13.20;99.90;;;;;;5108708;28;20019;-77
2021/05/10 21:11:11;;;;;;;3.67;2.38;;;14.10;99.90;;;;;;5107956;28;20040;-76
2021/05/10 21:13:37;;;;;;;3.33;2.15;;;13.20;99.90;;;;;;5108784;28;20492;-77
2021/05/10 21:16:03;;;;;;;3.03;2.47;;;12.80;99.90;;;;;;5109380;28;20027;-77
2021/05/10 21:18:31;;;;;;;2.70;2.25;;;12.70;99.90;;;;;;5112061;28;20051;-77
2021/05/10 21:20:57;;;;;;;3.45;2.20;;;12.80;99.90;;;;;;5083622;28;20029;-76
2021/05/10 21:23:23;;;;;;;2.78;2.15;;;12.70;99.90;;;;;;5071751;28;20037;-76
2021/05/10 21:25:49;;;;;;;3.15;2.55;;;13.10;99.90;;;;;;5071743;28;20389;-76
2021/05/10 21:28:15;;;;;;;4.55;2.80;;;12.80;99.90;;;;;;5074443;28;20058;-76
2021/05/10 21:30:41;;;;;;;3.25;2.75;;;12.80;99.90;;;;;;5081195;28;20503;-76
2021/05/10 21:33:07;;;;;;;4.32;2.45;;;12.90;99.90;;;;;;5071644;28;20031;-76
2021/05/10 21:35:33;;;;;;;4.15;2.50;;;13.00;99.90;;;;;;5107814;28;20024;-76
2021/05/10 21:37:59;;;;;;;5.10;2.75;;;13.20;99.90;;;;;;5112240;28;20024;-76
2021/05/10 21:40:26;;;;;;;3.03;2.70;;;13.00;99.90;;;;;;5087262;28;20056;-76
2021/05/10 21:42:52;;;;;;;4.25;2.33;;;13.10;99.90;;;;;;5071239;28;20029;-76
2021/05/10 21:45:18;;;;;;;3.50;2.63;;;13.10;99.90;;;;;;5071543;28;20077;-77
2021/05/10 21:47:44;;;;;;;4.57;2.75;;;13.20;99.90;;;;;;5071422;28;20028;-76
2021/05/10 21:50:14;;;;;;;3.33;2.53;;;13.60;99.90;;;;;;5070993;28;20021;-76
2021/05/10 21:52:40;;;;;;;3.50;2.92;;;13.60;99.90;;;;;;5071431;28;20029;-76
2021/05/10 21:55:07;;;;;;;3.28;2.60;;;13.50;99.90;;;;;;5070210;28;20025;-78
2021/05/10 21:57:33;;;;;;;3.58;2.50;;;13.30;99.90;;;;;;5082216;28;20036;-77
2021/05/10 21:59:59;;;;;;;3.83;2.50;;;13.90;99.90;;;;;;5086801;28;20488;-76
2021/05/10 22:02:25;;;;;;;3.95;2.28;;;13.40;99.90;;;;;;5072183;28;20034;-77
2021/05/10 22:04:50;;;;;;;3.88;2.33;;;13.50;99.90;;;;;;5099440;28;20041;-76
2021/05/10 22:07:16;;;;;;;3.53;2.30;;;13.40;99.90;;;;;;5115918;28;20499;-76
2021/05/10 22:09:41;;;;;;;5.80;2.80;;;13.50;99.90;;;;;;5114070;28;20034;-76
2021/05/10 22:12:07;;;;;;;4.28;2.65;;;14.20;99.90;;;;;;5115623;28;20024;-77
2021/05/10 22:14:33;;;;;;;5.32;2.60;;;13.10;99.90;;;;;;5094709;28;20092;-78
2021/05/10 22:16:59;;;;;;;2.50;1.90;;;13.40;99.90;;;;;;5095034;28;20040;-77
2021/05/10 22:19:24;;;;;;;3.05;2.45;;;13.20;99.90;;;;;;5091562;28;20400;-78
2021/05/10 22:21:52;;;;;;;3.78;2.15;;;14.10;99.90;;;;;;5073179;28;20029;-78
2021/05/10 22:24:31;;;;;;;3.75;2.65;;;14.20;99.90;;;;;;5074609;28;20096;-78
2021/05/10 22:27:03;;;;;;;4.93;3.15;;;13.20;99.90;;;;;;5094130;28;20388;-78
2021/05/10 22:29:29;;;;;;;4.90;3.05;;;12.90;99.90;;;;;;5094471;28;20032;-78
2021/05/10 22:31:55;;;;;;;5.18;3.35;;;14.40;99.90;;;;;;5076148;28;20035;-78
2021/05/10 22:34:21;;;;;;;4.68;3.47;;;13.10;99.90;;;;;;5090785;28;20032;-78
2021/05/10 22:36:55;;;;;;;4.97;3.67;;;12.90;99.90;;;;;;5114098;28;20054;-78
2021/05/10 22:41:51;;;;;;;6.03;4.22;;;14.30;99.90;;;;;;5114635;28;20392;-78
2021/05/10 22:44:28;;;;;;;6.38;4.75;;;13.10;99.90;;;;;;5113751;28;20114;-78
2021/05/10 23:01:55;;;;;;;10.93;6.88;;;13.00;99.90;;;;;;5094744;28;20120;-78
2021/05/10 23:09:05;;;;;;;6.25;4.85;;;13.30;99.90;;;;;;5074540;28;20511;-77
2021/05/10 23:11:59;;;;;;;7.83;4.57;;;13.30;99.90;;;;;;5072494;28;20033;-77
